createdAt,value
2023-06-19T00:01:10.001Z,5.97
2023-06-19T00:03:36.978Z,7.80
2023-06-19T00:06:04.089Z,5.33
2023-06-19T00:08:31.619Z,5.87
2023-06-19T00:10:58.697Z,5.70
2023-06-19T00:13:25.626Z,5.70
2023-06-19T00:15:52.673Z,7.63
2023-06-19T00:18:20.976Z,8.67
2023-06-19T00:20:48.028Z,7.00
2023-06-19T00:23:18.047Z,7.13
2023-06-19T00:25:45.750Z,6.80
2023-06-19T00:28:15.969Z,7.03
2023-06-19T00:30:43.421Z,7.60
2023-06-19T00:33:10.437Z,6.63
2023-06-19T00:35:37.694Z,6.33
2023-06-19T00:38:07.174Z,9.40
2023-06-19T00:40:35.060Z,6.10
2023-06-19T00:43:02.327Z,6.57
2023-06-19T00:45:29.420Z,6.43
2023-06-19T00:47:57.813Z,7.83
2023-06-19T00:50:25.669Z,6.07
2023-06-19T00:52:52.958Z,6.47
2023-06-19T00:55:20.416Z,7.20
2023-06-19T00:57:47.604Z,5.50
2023-06-19T01:00:14.966Z,6.77
2023-06-19T01:02:42.010Z,11.13
2023-06-19T01:05:09.085Z,6.20
2023-06-19T01:08:02.583Z,8.20
2023-06-19T01:10:42.966Z,6.00
2023-06-19T01:13:13.499Z,7.37
2023-06-19T01:15:42.989Z,9.57
2023-06-19T01:18:12.664Z,6.70
2023-06-19T01:20:39.925Z,6.97
2023-06-19T01:23:10.880Z,6.70
2023-06-19T01:25:37.918Z,6.47
2023-06-19T01:28:10.574Z,6.00
2023-06-19T01:30:39.096Z,6.47
2023-06-19T01:33:21.760Z,9.87
2023-06-19T01:35:50.268Z,6.40
2023-06-19T01:38:18.341Z,7.00
2023-06-19T01:40:46.593Z,6.20
2023-06-19T01:43:13.849Z,5.87
2023-06-19T01:45:41.029Z,5.13
2023-06-19T01:48:09.664Z,5.47
2023-06-19T01:50:36.592Z,6.47
2023-06-19T01:53:03.501Z,6.63
2023-06-19T01:55:30.487Z,6.07
2023-06-19T01:57:58.470Z,5.90
2023-06-19T02:00:25.568Z,5.60
2023-06-19T02:02:52.707Z,6.63
2023-06-19T02:05:20.175Z,11.40
2023-06-19T02:07:47.116Z,5.60
2023-06-19T02:10:14.037Z,6.43
2023-06-19T02:12:40.961Z,6.20
2023-06-19T02:15:09.924Z,7.70
2023-06-19T02:17:36.878Z,8.50
2023-06-19T02:20:06.837Z,6.67
2023-06-19T02:22:33.920Z,6.97
2023-06-19T02:25:01.103Z,6.57
2023-06-19T02:27:28.033Z,5.43
2023-06-19T02:29:54.928Z,6.00
2023-06-19T02:32:22.235Z,5.77
2023-06-19T02:34:50.312Z,9.37
2023-06-19T02:37:17.242Z,6.60
2023-06-19T02:39:44.193Z,8.10
2023-06-19T02:42:13.890Z,6.00
2023-06-19T02:44:41.401Z,7.60
2023-06-19T02:47:08.571Z,6.93
2023-06-19T02:49:35.454Z,7.30
2023-06-19T02:52:02.340Z,8.70
2023-06-19T02:54:32.481Z,6.13
2023-06-19T02:57:00.628Z,7.07
2023-06-19T02:59:29.210Z,6.70
2023-06-19T03:01:56.142Z,6.10
2023-06-19T03:04:24.984Z,6.83
2023-06-19T03:06:54.967Z,6.93
2023-06-19T03:09:22.338Z,11.50
2023-06-19T03:11:49.200Z,7.23
2023-06-19T03:14:16.162Z,6.67
2023-06-19T03:16:43.132Z,13.80
2023-06-19T03:19:13.541Z,6.80
2023-06-19T03:21:40.433Z,7.60
2023-06-19T03:24:08.032Z,6.30
2023-06-19T03:26:35.059Z,6.83
2023-06-19T03:29:01.918Z,6.80
2023-06-19T03:31:29.594Z,6.73
2023-06-19T03:33:58.232Z,7.03
2023-06-19T03:36:25.400Z,7.37
2023-06-19T03:38:55.068Z,7.37
2023-06-19T03:41:22.022Z,6.73
2023-06-19T03:43:49.224Z,7.23
2023-06-19T03:46:18.418Z,6.20
2023-06-19T03:48:46.678Z,9.00
2023-06-19T03:51:14.185Z,7.80
2023-06-19T03:53:41.045Z,7.53
2023-06-19T03:56:08.449Z,7.17
2023-06-19T03:58:35.338Z,6.73
2023-06-19T04:01:02.247Z,5.97
2023-06-19T04:03:29.483Z,11.30
2023-06-19T04:05:58.222Z,6.80
2023-06-19T04:08:29.022Z,7.30
2023-06-19T04:10:58.278Z,7.23
2023-06-19T04:13:27.107Z,6.00
2023-06-19T04:15:54.118Z,6.87
2023-06-19T04:18:21.009Z,6.53
2023-06-19T04:20:48.062Z,6.30
2023-06-19T04:23:16.056Z,6.73
2023-06-19T04:25:42.915Z,9.30
2023-06-19T04:28:09.793Z,8.40
2023-06-19T04:30:36.787Z,7.67
2023-06-19T04:33:03.887Z,4.83
2023-06-19T04:35:30.833Z,13.90
2023-06-19T04:38:02.326Z,4.07
2023-06-19T04:40:29.327Z,4.83
2023-06-19T04:42:56.212Z,4.20
2023-06-19T04:45:23.371Z,3.73
2023-06-19T04:47:53.928Z,4.93
2023-06-19T04:50:25.426Z,3.37
2023-06-19T04:52:53.164Z,3.13
2023-06-19T04:55:20.138Z,8.90
2023-06-19T04:57:47.027Z,5.50
2023-06-19T05:00:17.563Z,3.00
2023-06-19T05:02:46.063Z,2.97
2023-06-19T05:05:13.050Z,17.13
2023-06-19T05:07:40.631Z,3.00
2023-06-19T05:10:09.496Z,7.13
2023-06-19T05:12:38.574Z,9.67
2023-06-19T05:15:07.838Z,3.30
2023-06-19T05:17:34.926Z,4.60
2023-06-19T05:20:01.868Z,3.20
2023-06-19T05:22:29.895Z,3.93
2023-06-19T05:24:56.977Z,10.50
2023-06-19T05:27:24.268Z,2.50
2023-06-19T05:29:52.563Z,2.80
2023-06-19T05:32:19.749Z,2.40
2023-06-19T05:34:46.736Z,5.00
2023-06-19T05:37:13.616Z,2.60
2023-06-19T05:39:40.808Z,2.70
2023-06-19T05:42:08.236Z,2.63
2023-06-19T05:44:35.301Z,18.93
2023-06-19T05:47:02.164Z,2.10
2023-06-19T05:49:29.044Z,4.53
2023-06-19T05:52:00.293Z,2.63
2023-06-19T05:54:27.573Z,3.17
2023-06-19T05:56:54.691Z,3.13
2023-06-19T05:59:23.254Z,1.87
2023-06-19T06:01:51.998Z,8.80
2023-06-19T06:04:19.749Z,2.33
2023-06-19T06:06:47.028Z,4.83
2023-06-19T06:09:14.360Z,6.90
2023-06-19T06:11:41.363Z,2.03
2023-06-19T06:14:09.286Z,6.33
2023-06-19T06:16:38.987Z,2.10
2023-06-19T06:19:07.382Z,4.33
2023-06-19T06:21:35.873Z,1.60
2023-06-19T06:24:05.137Z,1.80
2023-06-19T06:26:33.937Z,1.30
2023-06-19T06:29:01.428Z,3.22
2023-06-19T06:31:29.625Z,3.83
2023-06-19T06:33:56.590Z,2.42
2023-06-19T06:36:35.625Z,1.63
2023-06-19T06:39:03.720Z,10.40
2023-06-19T06:41:30.877Z,2.67
2023-06-19T06:43:57.811Z,3.72
2023-06-19T06:46:24.882Z,3.35
2023-06-19T06:48:52.034Z,3.33
2023-06-19T06:51:19.089Z,1.65
2023-06-19T06:53:46.198Z,1.67
2023-06-19T06:56:13.252Z,1.30
2023-06-19T06:58:40.456Z,1.35
2023-06-19T07:01:07.887Z,1.75
2023-06-19T07:03:36.223Z,2.20
2023-06-19T07:06:03.987Z,3.33
2023-06-19T07:08:30.958Z,9.00
2023-06-19T07:10:57.951Z,1.70
2023-06-19T07:13:25.694Z,2.20
2023-06-19T07:15:52.601Z,2.50
2023-06-19T07:18:19.647Z,1.60
2023-06-19T07:20:46.685Z,2.17
2023-06-19T07:23:13.722Z,5.70
2023-06-19T07:25:40.609Z,5.43
2023-06-19T07:28:07.556Z,1.30
2023-06-19T07:30:34.602Z,3.00
2023-06-19T07:33:01.670Z,1.30
2023-06-19T07:35:28.633Z,2.00
2023-06-19T07:37:55.632Z,2.05
2023-06-19T07:40:23.032Z,5.90
2023-06-19T07:42:50.298Z,1.23
2023-06-19T07:45:17.388Z,1.93
2023-06-19T07:47:44.460Z,2.65
2023-06-19T07:50:11.476Z,5.13
2023-06-19T07:52:38.327Z,4.65
2023-06-19T07:55:05.664Z,1.27
2023-06-19T07:57:32.620Z,1.67
2023-06-19T07:59:59.611Z,1.30
2023-06-19T08:02:26.680Z,8.60
2023-06-19T08:04:53.710Z,2.37
2023-06-19T08:07:20.668Z,4.83
2023-06-19T08:09:52.057Z,1.70
2023-06-19T08:12:27.717Z,2.60
2023-06-19T08:14:54.608Z,2.23
2023-06-19T08:17:21.561Z,1.53
2023-06-19T08:19:48.965Z,1.80
2023-06-19T08:22:15.834Z,3.10
2023-06-19T08:24:43.028Z,7.23
2023-06-19T08:27:10.144Z,1.90
2023-06-19T08:29:37.027Z,3.10
2023-06-19T08:32:04.203Z,4.07
2023-06-19T08:34:31.213Z,3.07
2023-06-19T08:36:58.512Z,1.60
2023-06-19T08:39:27.065Z,1.80
2023-06-19T08:41:56.198Z,2.30
2023-06-19T08:44:23.105Z,2.20
2023-06-19T08:46:50.037Z,3.90
2023-06-19T08:49:17.097Z,1.50
2023-06-19T08:51:44.017Z,2.33
2023-06-19T08:54:10.987Z,1.50
2023-06-19T08:56:39.077Z,2.57
2023-06-19T08:59:16.819Z,2.13
2023-06-19T09:01:56.713Z,2.20
2023-06-19T09:04:27.628Z,1.83
2023-06-19T09:06:58.114Z,1.13
2023-06-19T09:09:26.628Z,1.33
2023-06-19T09:12:19.616Z,1.30
2023-06-19T09:14:47.231Z,1.93
2023-06-19T09:17:23.285Z,4.17
2023-06-19T09:19:56.990Z,1.63
2023-06-19T09:22:26.153Z,4.10
2023-06-19T09:24:53.254Z,1.70
2023-06-19T09:27:21.070Z,6.20
2023-06-19T09:29:49.754Z,7.13
2023-06-19T09:32:21.648Z,2.93
2023-06-19T09:34:50.548Z,3.17
2023-06-19T09:37:24.147Z,3.90
2023-06-19T09:39:55.550Z,3.03
2023-06-19T09:42:33.170Z,1.63
2023-06-19T09:45:07.619Z,2.70
2023-06-19T09:47:47.153Z,2.90
2023-06-19T09:50:18.385Z,2.70
2023-06-19T09:52:45.927Z,1.87
2023-06-19T09:55:14.452Z,2.23
2023-06-19T09:57:42.819Z,1.33
2023-06-19T10:00:14.744Z,4.53
2023-06-19T10:02:43.482Z,8.00
2023-06-19T10:05:14.924Z,2.20
2023-06-19T10:07:48.252Z,2.40
2023-06-19T10:10:31.276Z,3.40
2023-06-19T10:13:11.894Z,3.40
2023-06-19T10:15:45.554Z,3.47
2023-06-19T10:18:17.468Z,1.90
2023-06-19T10:20:47.295Z,6.40
2023-06-19T10:23:26.078Z,3.77
2023-06-19T10:26:02.381Z,2.50
2023-06-19T10:28:33.042Z,2.70
2023-06-19T10:31:06.174Z,4.10
2023-06-19T10:33:35.470Z,1.83
2023-06-19T10:36:15.302Z,2.73
2023-06-19T10:38:42.503Z,6.73
2023-06-19T10:41:19.938Z,3.53
2023-06-19T10:44:19.267Z,1.40
2023-06-19T10:46:46.196Z,1.00
2023-06-19T10:49:14.691Z,3.23
2023-06-19T10:51:44.837Z,1.80
2023-06-19T10:54:12.036Z,1.20
2023-06-19T10:56:38.984Z,1.20
2023-06-19T10:59:12.981Z,1.53
2023-06-19T11:01:42.126Z,1.87
2023-06-19T11:04:11.437Z,2.33
2023-06-19T11:06:40.369Z,5.43
2023-06-19T11:09:08.202Z,2.60
2023-06-19T11:11:46.725Z,1.40
2023-06-19T11:14:14.996Z,3.60
2023-06-19T11:16:47.152Z,1.37
2023-06-19T11:19:19.330Z,1.85
2023-06-19T11:21:55.871Z,1.45
2023-06-19T11:24:24.893Z,1.38
2023-06-19T11:26:53.280Z,2.30
2023-06-19T11:29:30.174Z,1.73
2023-06-19T11:32:08.516Z,5.60
2023-06-19T11:34:38.127Z,1.93
2023-06-19T11:37:22.344Z,2.90
2023-06-19T11:39:50.520Z,1.97
2023-06-19T11:42:20.569Z,1.90
2023-06-19T11:44:57.827Z,8.50
2023-06-19T11:47:25.085Z,2.30
2023-06-19T11:49:52.624Z,7.80
2023-06-19T11:52:19.560Z,9.90
2023-06-19T11:54:46.547Z,2.03
2023-06-19T11:57:13.886Z,2.50
2023-06-19T11:59:42.066Z,1.65
2023-06-19T12:02:10.235Z,2.30
2023-06-19T12:04:37.522Z,1.90
2023-06-19T12:07:05.319Z,3.28
2023-06-19T12:09:35.712Z,6.50
2023-06-19T12:12:03.559Z,2.10
2023-06-19T12:14:30.770Z,2.30
2023-06-19T12:16:57.673Z,4.20
2023-06-19T12:19:24.603Z,12.07
2023-06-19T12:21:51.498Z,1.98
2023-06-19T12:24:18.540Z,13.75
2023-06-19T12:26:46.121Z,2.30
2023-06-19T12:29:13.068Z,5.97
2023-06-19T12:31:40.359Z,2.63
2023-06-19T12:36:37.351Z,2.85
2023-06-19T12:39:07.251Z,2.70
2023-06-19T12:41:34.101Z,2.50
2023-06-19T12:44:01.017Z,7.23
2023-06-19T12:46:28.000Z,7.80
2023-06-19T12:48:54.998Z,4.70
2023-06-19T12:51:21.898Z,2.43
2023-06-19T12:53:48.762Z,2.70
2023-06-19T12:56:15.671Z,4.30
2023-06-19T12:58:42.524Z,3.17
2023-06-19T13:01:09.578Z,3.90
2023-06-19T13:03:36.602Z,2.87
2023-06-19T13:06:03.681Z,4.60
2023-06-19T13:08:30.641Z,10.00
2023-06-19T13:10:57.777Z,5.90
2023-06-19T13:13:24.681Z,3.07
2023-06-19T13:15:51.649Z,3.40
2023-06-19T13:18:19.442Z,4.60
2023-06-19T13:20:49.158Z,2.97
2023-06-19T13:23:16.207Z,3.47
2023-06-19T13:25:43.141Z,2.67
2023-06-19T13:28:10.010Z,2.80
2023-06-19T13:30:36.971Z,3.13
2023-06-19T13:33:05.503Z,3.33
2023-06-19T13:35:32.724Z,7.10
2023-06-19T13:38:00.857Z,3.77
2023-06-19T13:40:27.736Z,3.30
2023-06-19T13:42:55.770Z,7.93
2023-06-19T13:45:22.766Z,3.00
2023-06-19T13:47:49.810Z,4.13
2023-06-19T13:50:19.402Z,3.50
2023-06-19T13:52:47.495Z,3.20
2023-06-19T13:55:20.056Z,6.40
2023-06-19T13:57:47.445Z,3.57
2023-06-19T14:00:14.969Z,5.37
2023-06-19T14:02:42.797Z,6.80
2023-06-19T14:05:10.687Z,4.90
2023-06-19T14:07:38.304Z,5.90
2023-06-19T14:10:06.765Z,2.50
2023-06-19T14:12:33.863Z,2.97
2023-06-19T14:15:00.881Z,5.20
2023-06-19T14:17:27.907Z,4.40
2023-06-19T14:19:56.638Z,4.20
2023-06-19T14:22:23.556Z,3.33
2023-06-19T14:24:51.101Z,5.20
2023-06-19T14:27:18.099Z,3.50
2023-06-19T14:29:45.565Z,2.77
2023-06-19T14:32:13.557Z,5.50
2023-06-19T14:34:40.555Z,4.83
2023-06-19T14:37:07.497Z,4.33
2023-06-19T14:39:34.462Z,2.73
2023-06-19T14:42:01.401Z,3.40
2023-06-19T14:44:28.263Z,3.40
2023-06-19T14:46:55.161Z,8.67
2023-06-19T14:49:22.330Z,3.40
2023-06-19T14:51:49.314Z,4.60
2023-06-19T14:54:18.729Z,4.07
2023-06-19T14:56:49.064Z,4.40
2023-06-19T14:59:16.055Z,3.80
2023-06-19T15:01:43.118Z,7.87
2023-06-19T15:04:10.270Z,7.83
2023-06-19T15:06:37.313Z,3.83
2023-06-19T15:09:05.490Z,3.17
2023-06-19T15:11:33.708Z,2.80
2023-06-19T15:14:00.622Z,4.37
2023-06-19T15:16:27.712Z,4.10
2023-06-19T15:18:55.620Z,4.47
2023-06-19T15:21:22.647Z,10.30
2023-06-19T15:23:50.356Z,5.53
2023-06-19T15:26:17.342Z,3.43
2023-06-19T15:28:45.122Z,3.93
2023-06-19T15:31:12.273Z,3.70
2023-06-19T15:33:39.405Z,4.07
2023-06-19T15:36:06.806Z,4.03
2023-06-19T15:38:34.087Z,4.10
2023-06-19T15:41:01.044Z,3.87
2023-06-19T15:43:29.980Z,8.40
2023-06-19T15:45:57.357Z,4.40
2023-06-19T15:48:24.378Z,4.27
2023-06-19T15:50:51.448Z,5.10
2023-06-19T15:53:18.324Z,4.87
2023-06-19T15:55:45.246Z,5.40
2023-06-19T15:58:12.697Z,4.57
2023-06-19T16:00:39.864Z,7.60
2023-06-19T16:03:08.731Z,4.30
2023-06-19T16:05:36.029Z,4.00
2023-06-19T16:08:02.965Z,4.40
2023-06-19T16:10:29.892Z,6.27
2023-06-19T16:12:56.807Z,5.20
2023-06-19T16:15:29.008Z,4.67
2023-06-19T16:17:56.579Z,8.60
2023-06-19T16:20:24.394Z,3.50
2023-06-19T16:22:52.186Z,3.77
2023-06-19T16:25:19.338Z,3.37
2023-06-19T16:27:46.291Z,3.53
2023-06-19T16:30:13.596Z,4.50
2023-06-19T16:32:40.685Z,8.73
2023-06-19T16:35:08.384Z,9.40
2023-06-19T16:37:35.409Z,9.43
2023-06-19T16:40:02.508Z,5.60
2023-06-19T16:42:29.419Z,5.13
2023-06-19T16:44:58.151Z,9.53
2023-06-19T16:47:25.262Z,5.07
2023-06-19T16:49:52.202Z,5.53
2023-06-19T16:52:19.175Z,4.57
2023-06-19T16:54:46.051Z,6.27
2023-06-19T16:57:15.289Z,4.87
2023-06-19T16:59:42.384Z,6.93
2023-06-19T17:02:09.404Z,4.70
2023-06-19T17:04:36.694Z,4.70
2023-06-19T17:07:03.781Z,7.93
2023-06-19T17:09:30.755Z,5.37
2023-06-19T17:11:57.746Z,5.00
2023-06-19T17:14:25.138Z,6.00
2023-06-19T17:16:53.004Z,4.83
2023-06-19T17:19:19.910Z,5.83
2023-06-19T17:21:46.958Z,5.00
2023-06-19T17:24:16.516Z,7.20
2023-06-19T17:26:44.800Z,4.60
2023-06-19T17:29:11.885Z,11.00
2023-06-19T17:31:39.020Z,6.47
2023-06-19T17:34:06.228Z,5.83
2023-06-19T17:36:33.229Z,4.53
2023-06-19T17:39:00.345Z,7.23
2023-06-19T17:41:27.333Z,5.73
2023-06-19T17:43:54.207Z,5.47
2023-06-19T17:46:21.951Z,34.00
2023-06-19T17:48:49.085Z,9.13
2023-06-19T17:51:16.002Z,7.37
2023-06-19T17:53:43.073Z,6.90
2023-06-19T17:56:10.037Z,6.20
2023-06-19T17:58:37.060Z,9.20
2023-06-19T18:01:04.068Z,8.60
2023-06-19T18:03:31.789Z,6.57
2023-06-19T18:05:58.840Z,5.20
2023-06-19T18:08:25.845Z,6.43
2023-06-19T18:10:52.751Z,6.30
2023-06-19T18:13:19.729Z,6.70
2023-06-19T18:15:52.984Z,6.77
2023-06-19T18:18:29.683Z,6.67
2023-06-19T18:20:56.628Z,5.63
2023-06-19T18:23:24.134Z,19.77
2023-06-19T18:25:52.334Z,14.27
2023-06-19T18:28:19.265Z,12.03
2023-06-19T18:30:46.341Z,20.47
2023-06-19T18:33:13.439Z,13.00
2023-06-19T18:35:40.355Z,9.47
2023-06-19T18:38:07.244Z,13.60
2023-06-19T18:40:34.196Z,8.50
2023-06-19T18:43:01.163Z,11.17
2023-06-19T18:45:28.014Z,12.70
2023-06-19T18:47:54.896Z,9.30
2023-06-19T18:50:22.100Z,14.33
2023-06-19T18:52:49.050Z,6.00
2023-06-19T18:55:16.167Z,6.60
2023-06-19T18:57:43.233Z,7.37
2023-06-19T19:00:10.853Z,13.70
2023-06-19T19:02:37.819Z,8.30
2023-06-19T19:05:05.165Z,7.33
2023-06-19T19:07:32.049Z,8.10
2023-06-19T19:09:59.026Z,8.37
2023-06-19T19:12:25.988Z,6.37
2023-06-19T19:14:52.918Z,6.67
2023-06-19T19:17:19.869Z,8.00
2023-06-19T19:19:46.967Z,7.03
2023-06-19T19:22:13.898Z,7.10
2023-06-19T19:24:41.396Z,6.10
2023-06-19T19:27:08.289Z,7.27
2023-06-19T19:29:35.176Z,6.60
2023-06-19T19:32:02.235Z,6.53
2023-06-19T19:34:29.184Z,13.83
2023-06-19T19:36:57.544Z,9.10
2023-06-19T19:39:24.555Z,7.63
2023-06-19T19:41:51.503Z,9.40
2023-06-19T19:44:18.686Z,10.23
2023-06-19T19:46:45.698Z,8.07
2023-06-19T19:49:13.037Z,7.40
2023-06-19T19:51:39.992Z,12.63
2023-06-19T19:54:07.188Z,9.10
2023-06-19T19:56:34.148Z,8.43
2023-06-19T19:59:02.074Z,7.10
2023-06-19T20:01:29.122Z,6.50
2023-06-19T20:03:56.372Z,13.47
2023-06-19T20:06:23.440Z,16.97
2023-06-19T20:08:50.316Z,5.97
2023-06-19T20:11:17.278Z,17.03
2023-06-19T20:13:45.758Z,6.97
2023-06-19T20:16:12.761Z,6.60
2023-06-19T20:18:39.963Z,6.03
2023-06-19T20:21:06.894Z,7.33
2023-06-19T20:23:33.983Z,7.33
2023-06-19T20:26:01.286Z,7.30
2023-06-19T20:28:28.210Z,7.50
2023-06-19T20:30:55.489Z,8.20
2023-06-19T20:33:23.318Z,7.47
2023-06-19T20:35:51.225Z,8.07
2023-06-19T20:38:21.215Z,8.53
2023-06-19T20:40:52.038Z,7.63
2023-06-19T20:43:19.026Z,6.63
2023-06-19T20:45:45.928Z,7.23
2023-06-19T20:48:12.876Z,8.47
2023-06-19T20:50:40.082Z,11.60
2023-06-19T20:53:07.066Z,7.23
2023-06-19T20:55:34.004Z,11.70
2023-06-19T20:58:05.823Z,6.87
2023-06-19T21:00:33.476Z,11.50
2023-06-19T21:03:01.114Z,12.37
2023-06-19T21:05:28.264Z,8.23
2023-06-19T21:07:55.203Z,8.83
2023-06-19T21:10:23.789Z,15.07
2023-06-19T21:12:51.074Z,11.60
2023-06-19T21:15:17.983Z,10.73
2023-06-19T21:17:44.940Z,32.27
2023-06-19T21:20:12.101Z,18.77
2023-06-19T21:22:40.104Z,27.40
2023-06-19T21:25:07.640Z,19.40
2023-06-19T21:27:37.560Z,15.83
2023-06-19T21:30:05.801Z,10.97
2023-06-19T21:32:33.078Z,17.97
2023-06-19T21:35:00.185Z,22.30
2023-06-19T21:37:27.096Z,14.97
2023-06-19T21:39:54.006Z,15.63
2023-06-19T21:42:20.917Z,17.13
2023-06-19T21:44:47.878Z,13.77
2023-06-19T21:47:14.820Z,8.43
2023-06-19T21:49:41.783Z,14.70
2023-06-19T21:52:08.816Z,46.70
2023-06-19T21:54:35.861Z,24.10
2023-06-19T21:57:02.996Z,43.67
2023-06-19T21:59:30.039Z,55.07
2023-06-19T22:01:57.209Z,56.63
2023-06-19T22:04:24.178Z,47.43
2023-06-19T22:06:51.195Z,22.27
2023-06-19T22:09:18.243Z,19.47
2023-06-19T22:11:45.116Z,17.10
2023-06-19T22:14:12.126Z,26.97
2023-06-19T22:16:39.037Z,57.67
2023-06-19T22:19:05.993Z,72.03
2023-06-19T22:21:33.002Z,68.73
2023-06-19T22:23:59.896Z,23.10
2023-06-19T22:26:26.864Z,32.40
2023-06-19T22:28:53.811Z,58.67
2023-06-19T22:31:20.857Z,68.17
2023-06-19T22:33:47.806Z,77.37
2023-06-19T22:36:15.817Z,78.37
2023-06-19T22:38:42.737Z,81.53
2023-06-19T22:41:09.746Z,53.00
2023-06-19T22:43:36.734Z,31.30
2023-06-19T22:46:05.096Z,34.63
2023-06-19T22:48:32.156Z,52.17
2023-06-19T22:50:59.394Z,47.30
2023-06-19T22:53:26.284Z,52.37
2023-06-19T22:55:53.189Z,53.67
2023-06-19T22:58:20.165Z,55.03
2023-06-19T23:00:47.793Z,51.10
2023-06-19T23:03:15.187Z,51.97
2023-06-19T23:05:42.183Z,40.33
2023-06-19T23:08:09.062Z,47.97
2023-06-19T23:10:35.955Z,58.43
2023-06-19T23:13:02.873Z,47.57
2023-06-19T23:15:30.974Z,44.70
2023-06-19T23:17:57.932Z,38.77
2023-06-19T23:20:24.809Z,53.00
2023-06-19T23:22:51.654Z,48.70
2023-06-19T23:25:19.596Z,56.70
2023-06-19T23:27:46.469Z,56.80
2023-06-19T23:30:13.659Z,41.97
2023-06-19T23:32:41.407Z,36.63
2023-06-19T23:35:08.986Z,36.83
2023-06-19T23:37:35.903Z,23.13
2023-06-19T23:40:05.555Z,11.07
2023-06-19T23:42:32.455Z,7.70
2023-06-19T23:44:59.423Z,7.67
2023-06-19T23:47:26.473Z,7.77
2023-06-19T23:49:53.339Z,7.37
2023-06-19T23:52:29.744Z,6.70
2023-06-19T23:55:01.251Z,8.87
2023-06-19T23:57:28.152Z,7.57
2023-06-19T23:59:55.071Z,15.40
